Latest Weather Observations for Cerberus

IDV60901

Issued at 8:01 pm EST Tuesday 1 September 2015 (issued every 10 minutes, with the page automatically refreshed every 10 minutes)

About weather observations | Map of Melbourne area stations | Latest observations for Melbourne area | Other Formats
Station Details ID: 086361 Name: CERBERUS Lat: -38.36 Lon: 145.18 Height: 12.69 m
Data from the previous 72 hours. | See also: Recent months at Cerberus
Date/Time
EST
Tmp

°C
App
Tmp
°C
Dew
Point
°C
Rel
Hum
%
Delta-T

°C
Wind Press
QNH
hPa
Press
MSL
hPa
Rain
since
9 am
mm
Dir
 
Spd
km/h
Gust
km/h
Spd
kts
Gust
kts
01/08:00pm 5.7 4.3 3.7 87 0.8 CALM 0 0 0 0 1014.3 1014.3 0.0
01/07:30pm 7.0 5.8 4.7 85 1.0 CALM 0 0 0 0 1014.2 1014.2 0.0
01/07:00pm 8.0 6.8 4.8 80 1.4 CALM 0 0 0 0 1014.1 1014.1 0.0
01/06:30pm 8.2 7.0 4.8 79 1.5 CALM 0 0 0 0 1014.1 1014.1 0.0
01/06:00pm 9.4 8.2 4.6 72 2.1 CALM 0 0 0 0 1013.9 1013.9 0.0
01/05:30pm 10.4 9.2 4.8 68 2.5 CALM 0 9 0 5 1013.7 1013.7 0.0
01/05:00pm 11.4 10.2 4.6 63 3.1 CALM 0 0 0 0 1013.7 1013.7 0.0
01/04:30pm 11.9 10.3 4.4 60 3.4 SSE 2 11 1 6 1013.8 1013.8 0.0
01/04:00pm 12.6 11.1 4.8 59 3.6 SE 2 17 1 9 1013.8 1013.8 0.0
01/03:30pm 12.5 10.2 5.0 60 3.5 ENE 6 13 3 7 1014.3 1014.3 0.0
01/03:00pm 12.9 10.8 4.1 55 4.0 NE 4 11 2 6 1014.1 1014.1 0.0
01/02:30pm 12.7 10.2 3.9 55 4.0 ENE 6 13 3 7 1014.4 1014.4 0.0
01/02:00pm 12.7 10.0 3.6 54 4.1 SW 7 19 4 10 1014.8 1014.8 0.0
01/01:30pm 12.5 9.6 2.4 50 4.4 WSW 7 15 4 8 1015.2 1015.2 0.0
01/01:00pm 12.5 10.0 3.5 54 4.0 NNW 6 15 3 8 1015.8 1015.8 0.0
01/12:30pm 12.5 9.5 4.2 57 3.8 SSW 9 17 5 9 1016.3 1016.3 0.0
01/12:00pm 12.6 10.1 3.8 55 3.9 W 6 15 3 8 1016.8 1016.8 0.0
01/11:30am 11.6 9.0 3.4 57 3.6 SW 6 19 3 10 1017.0 1017.0 0.0
01/11:00am 11.4 9.4 2.2 53 3.9 S 2 11 1 6 1017.1 1017.1 0.0
01/10:30am 11.4 8.7 2.7 55 3.8 WNW 6 20 3 11 1017.2 1017.2 0.0
01/10:00am 10.9 9.2 1.7 53 3.9 CALM 0 11 0 6 1017.3 1017.3 0.0
01/09:30am 10.9 9.3 2.7 57 3.5 CALM 0 9 0 5 1017.4 1017.4 0.0
01/09:00am 9.3 7.6 1.7 59 3.1 CALM 0 0 0 0 1017.4 1017.4 0.0
01/08:30am 8.2 6.9 4.0 75 1.8 CALM 0 0 0 0 1017.3 1017.3 0.0
01/08:00am 6.7 5.2 3.1 78 1.5 CALM 0 0 0 0 1017.3 1017.3 0.0
01/07:30am 4.4 2.8 2.6 88 0.7 CALM 0 0 0 0 1017.1 1017.1 0.0
01/07:00am 3.7 2.0 1.7 87 0.8 CALM 0 0 0 0 1016.7 1016.7 0.0
01/06:30am 4.9 3.3 2.4 84 1.0 CALM 0 0 0 0 1016.8 1016.8 0.0
01/06:00am 5.7 4.2 2.9 82 1.2 CALM 0 0 0 0 1016.7 1016.7 0.0
01/05:30am 6.2 4.6 2.7 78 1.4 CALM 0 0 0 0 1016.8 1016.8 0.0
01/05:00am 6.9 5.4 3.0 76 1.6 CALM 0 0 0 0 1016.8 1016.8 0.0
01/04:30am 6.8 5.3 3.2 78 1.5 CALM 0 0 0 0 1017.0 1017.0 0.0
01/04:00am 6.8 5.2 2.7 75 1.7 CALM 0 0 0 0 1017.1 1017.1 0.0
01/03:30am 6.8 5.3 3.1 77 1.5 CALM 0 0 0 0 1017.2 1017.2 0.0
01/03:00am 7.2 5.6 2.7 73 1.9 CALM 0 0 0 0 1017.5 1017.5 0.0
01/02:30am 7.7 6.2 2.8 71 2.1 CALM 0 0 0 0 1017.8 1017.8 0.0
01/02:00am 8.4 6.8 2.6 67 2.4 CALM 0 0 0 0 1018.1 1018.1 0.0
01/01:30am 8.8 7.2 2.6 65 2.6 CALM 0 0 0 0 1018.5 1018.5 0.0
01/01:00am 8.7 7.3 3.5 70 2.2 CALM 0 0 0 0 1018.6 1018.6 0.0
01/12:30am 8.9 7.5 3.7 70 2.3 CALM 0 0 0 0 1018.7 1018.7 0.0
01/12:00am 8.8 7.6 4.8 76 1.8 CALM 0 0 0 0 1018.7 1018.7 0.0
 
Date/Time
EST
Tmp

°C
App
Tmp
°C
Dew
Point
°C
Rel
Hum
%
Delta-T

°C
Wind Press
QNH
hPa
Press
MSL
hPa
Rain
since
9 am
mm
Dir
 
Spd
km/h
Gust
km/h
Spd
kts
Gust
kts
31/11:30pm 8.9 7.6 4.1 72 2.1 CALM 0 0 0 0 1018.7 1018.7 0.0
31/11:00pm 8.9 7.7 4.5 74 1.9 CALM 0 0 0 0 1018.8 1018.8 0.0
31/10:30pm 8.9 7.6 4.3 73 2.0 CALM 0 0 0 0 1019.1 1019.1 0.0
31/10:00pm 9.5 8.4 5.3 75 1.9 CALM 0 0 0 0 1019.2 1019.2 0.0
31/09:30pm 9.6 8.2 3.6 66 2.6 CALM 0 0 0 0 1019.2 1019.2 0.0
31/09:00pm 10.1 8.6 2.9 61 3.1 CALM 0 4 0 2 1019.3 1019.3 0.0
31/08:30pm 9.9 8.1 3.2 63 2.9 SE 2 11 1 6 1019.3 1019.3 0.0
31/08:00pm 9.7 8.4 3.9 67 2.5 CALM 0 0 0 0 1019.2 1019.2 0.0
31/07:30pm 9.7 8.5 4.5 70 2.3 CALM 0 0 0 0 1019.1 1019.1 0.0
31/07:00pm 9.8 8.5 4.0 67 2.5 CALM 0 0 0 0 1019.0 1019.0 0.0
31/06:30pm 10.2 8.9 3.9 65 2.8 CALM 0 0 0 0 1019.0 1019.0 0.0
31/06:00pm 10.2 8.9 4.1 66 2.7 CALM 0 13 0 7 1019.0 1019.0 0.0
31/05:30pm 10.4 9.1 4.3 66 2.7 CALM 0 0 0 0 1019.0 1019.0 0.0
31/05:00pm 10.5 8.9 4.4 66 2.7 SE 2 13 1 7 1019.0 1019.0 0.0
31/04:30pm 10.7 8.2 4.6 66 2.7 ESE 7 15 4 8 1019.1 1019.1 0.0
31/04:00pm 10.8 8.3 4.9 67 2.7 SE 7 19 4 10 1019.1 1019.1 0.0
31/03:30pm 10.9 9.0 4.8 66 2.8 ESE 4 13 2 7 1018.9 1018.9 0.0
31/03:00pm 11.1 9.3 5.2 67 2.7 SE 4 13 2 7 1019.0 1019.0 0.0
31/02:30pm 10.9 8.6 5.0 67 2.7 SE 6 13 3 7 1019.1 1019.1 0.0
31/02:00pm 11.3 7.7 5.2 66 2.8 SSE 13 20 7 11 1019.2 1019.2 0.0
31/01:30pm 11.4 9.1 5.5 67 2.7 SSE 7 15 4 8 1019.5 1019.5 0.0
31/01:00pm 11.6 9.5 5.9 68 2.6 SE 6 17 3 9 1019.8 1019.8 0.0
31/12:30pm 11.3 9.1 5.2 66 2.8 SSE 6 15 3 8 1020.1 1020.1 0.0
31/12:00pm 12.7 11.1 6.3 65 3.0 SE 4 17 2 9 1020.4 1020.4 0.0
31/11:30am 11.0 9.8 4.7 65 2.8 CALM 0 0 0 0 1020.8 1020.8 0.0
31/11:00am 10.8 9.6 4.7 66 2.7 CALM 0 0 0 0 1020.9 1020.9 0.0
31/10:30am 10.6 9.4 4.7 67 2.7 CALM 0 0 0 0 1020.9 1020.9 0.0
31/10:00am 10.8 9.5 4.0 63 3.0 CALM 0 9 0 5 1021.1 1021.1 0.0
31/09:30am 10.7 9.3 3.5 61 3.2 CALM 0 0 0 0 1021.1 1021.1 0.0
31/09:00am 10.1 8.8 4.3 67 2.6 CALM 0 0 0 0 1021.1 1021.1 0.0
31/08:30am 9.7 8.6 4.9 72 2.2 CALM 0 0 0 0 1021.1 1021.1 0.0
31/08:00am 8.5 7.5 5.8 83 1.2 CALM 0 0 0 0 1021.0 1021.0 0.0
31/07:30am 7.9 6.8 5.0 82 1.3 CALM 0 0 0 0 1020.9 1020.9 0.0
31/07:00am 7.7 6.6 5.3 85 1.1 CALM 0 0 0 0 1020.8 1020.8 0.0
31/06:30am 7.4 6.3 5.0 85 1.1 CALM 0 0 0 0 1020.5 1020.5 0.0
31/06:00am 7.4 6.3 4.9 84 1.1 CALM 0 0 0 0 1020.6 1020.6 0.0
31/05:30am 7.2 6.1 5.0 86 1.0 CALM 0 0 0 0 1020.4 1020.4 0.0
31/05:00am 6.9 5.8 4.9 87 0.9 CALM 0 0 0 0 1020.5 1020.5 0.0
31/04:30am 7.2 6.0 4.7 84 1.1 CALM 0 0 0 0 1020.5 1020.5 0.0
31/04:00am 7.3 6.1 4.4 82 1.3 CALM 0 0 0 0 1020.5 1020.5 0.0
31/03:30am 7.4 6.2 4.4 81 1.3 CALM 0 0 0 0 1020.5 1020.5 0.0
31/03:00am 7.6 6.3 4.2 79 1.5 CALM 0 0 0 0 1020.5 1020.5 0.0
31/02:30am 7.0 5.7 4.0 81 1.3 CALM 0 0 0 0 1021.0 1021.0 0.0
31/02:00am 6.8 5.4 3.8 81 1.3 CALM 0 0 0 0 1021.5 1021.5 0.0
31/01:30am 7.1 5.7 3.3 77 1.6 CALM 0 0 0 0 1021.8 1021.8 0.0
31/01:00am 7.6 6.2 3.8 77 1.6 CALM 0 0 0 0 1022.0 1022.0 0.0
31/12:30am 7.7 6.3 3.7 76 1.7 CALM 0 0 0 0 1022.1 1022.1 0.0
31/12:00am 7.9 6.1 3.6 74 1.8 WSW 2 11 1 6 1022.3 1022.3 0.0
 
Date/Time
EST
Tmp

°C
App
Tmp
°C
Dew
Point
°C
Rel
Hum
%
Delta-T

°C
Wind Press
QNH
hPa
Press
MSL
hPa
Rain
since
9 am
mm
Dir
 
Spd
km/h
Gust
km/h
Spd
kts
Gust
kts
30/11:30pm 8.7 6.6 4.1 73 2.0 SE 4 9 2 5 1022.6 1022.6 0.0
30/11:00pm 9.0 6.6 4.2 72 2.1 SSE 6 11 3 6 1022.8 1022.8 0.0
30/10:30pm 9.4 6.4 4.2 70 2.3 SE 9 17 5 9 1023.0 1023.0 0.0
30/10:00pm 9.4 7.5 5.0 74 2.0 SE 4 7 2 4 1023.2 1023.2 0.0
30/09:30pm 9.5 7.4 4.1 69 2.4 WSW 4 6 2 3 1023.4 1023.4 0.0
30/09:00pm 9.7 7.2 3.9 67 2.5 WSW 6 7 3 4 1023.3 1023.3 0.0
30/08:30pm 9.6 7.1 4.8 72 2.1 SW 7 13 4 7 1023.4 1023.4 0.0
30/08:00pm 9.6 7.7 5.0 73 2.1 SW 4 6 2 3 1023.3 1023.3 0.0
30/07:30pm 9.6 6.8 5.0 73 2.1 SW 9 15 5 8 1023.4 1023.4 0.0
30/07:00pm 9.5 7.2 5.7 77 1.7 SW 7 9 4 5 1023.4 1023.4 0.0
30/06:30pm 9.7 6.7 5.9 77 1.7 SSE 11 17 6 9 1023.3 1023.3 0.0
30/06:00pm 9.8 7.3 5.0 72 2.2 SW 7 13 4 7 1023.1 1023.1 0.0
30/05:30pm 9.9 6.6 4.5 69 2.4 S 11 17 6 9 1023.0 1023.0 0.0
30/05:00pm 10.2 6.1 4.6 68 2.5 SE 15 20 8 11 1023.1 1023.1 0.0
30/04:30pm 10.2 5.9 5.4 72 2.2 SE 17 22 9 12 1022.9 1022.9 0.0
30/04:00pm 11.2 8.1 5.7 69 2.5 SE 11 19 6 10 1022.9 1022.9 0.0
30/03:30pm 10.6 7.0 4.9 68 2.6 SE 13 19 7 10 1023.2 1023.2 0.0
30/03:00pm 10.9 7.3 4.8 66 2.7 SE 13 20 7 11 1023.3 1023.3 0.0
30/02:30pm 11.1 7.2 5.2 67 2.7 SSE 15 24 8 13 1023.5 1023.5 0.0
30/02:00pm 11.1 6.8 5.2 67 2.7 SSE 17 26 9 14 1023.5 1023.5 0.0
30/01:30pm 11.3 7.0 5.2 66 2.8 SE 17 28 9 15 1023.7 1023.7 0.0
30/01:00pm 11.2 6.5 5.1 66 2.8 SE 19 28 10 15 1023.7 1023.7 0.0
30/12:30pm 11.4 7.2 5.5 67 2.7 SSE 17 28 9 15 1024.0 1024.0 0.0
30/12:00pm 11.7 8.0 6.2 69 2.6 SSE 15 24 8 13 1024.2 1024.2 0.0
30/11:30am 11.8 8.1 6.1 68 2.7 SSE 15 22 8 12 1024.7 1024.7 0.0
30/11:00am 11.5 7.4 6.2 70 2.5 SE 17 24 9 13 1024.9 1024.9 0.0
30/10:30am 11.3 7.4 5.4 67 2.7 SSE 15 22 8 12 1024.9 1024.9 0.0
30/10:00am 11.5 7.7 6.0 69 2.6 S 15 22 8 12 1025.0 1025.0 0.0
30/09:30am 11.4 8.0 5.7 68 2.6 S 13 22 7 12 1025.1 1025.1 0.0
30/09:00am 10.4 7.6 5.0 69 2.4 SSW 9 19 5 10 1025.2 1025.2 0.2
30/08:30am 10.4 6.9 5.6 72 2.2 WSW 13 20 7 11 1025.0 1025.0 0.2
30/08:00am 9.6 8.6 5.6 76 1.8 CALM 0 0 0 0 1024.9 1024.9 0.2
30/07:30am 8.5 7.4 4.9 78 1.6 CALM 0 0 0 0 1024.6 1024.6 0.2
30/07:00am 8.1 6.9 4.7 79 1.5 CALM 0 0 0 0 1024.4 1024.4 0.2
30/06:30am 8.6 7.5 5.0 78 1.6 CALM 0 0 0 0 1024.0 1024.0 0.2
30/06:00am 9.1 8.0 5.3 77 1.7 CALM 0 0 0 0 1023.8 1023.8 0.2
30/05:30am 9.5 8.6 5.9 78 1.7 CALM 0 0 0 0 1023.9 1023.9 0.2
30/05:00am 9.6 8.6 5.6 76 1.8 CALM 0 0 0 0 1023.7 1023.7 0.2
30/04:30am 9.8 8.4 5.6 75 1.9 SSE 2 15 1 8 1023.5 1023.5 0.2
30/04:00am 9.7 8.3 5.7 76 1.8 SSW 2 15 1 8 1023.6 1023.6 0.2
30/03:30am 9.9 9.1 6.3 78 1.7 CALM 0 0 0 0 1023.7 1023.7 0.2
30/03:00am 9.9 8.2 5.9 76 1.8 SSE 4 15 2 8 1023.8 1023.8 0.2
30/02:30am 9.9 7.7 6.1 77 1.8 SE 7 17 4 9 1023.8 1023.8 0.2
30/02:00am 10.0 7.9 6.0 76 1.8 SE 6 19 3 10 1024.0 1024.0 0.2
30/01:30am 10.1 6.8 6.3 77 1.8 SE 13 24 7 13 1024.3 1024.3 0.2
30/01:00am 10.2 6.5 6.4 77 1.8 SE 15 24 8 13 1024.5 1024.5 0.2
30/12:30am 10.2 6.5 6.2 76 1.9 SE 15 24 8 13 1024.7 1024.7 0.2
30/12:00am 10.3 7.8 6.5 77 1.8 SE 9 20 5 11 1024.8 1024.8 0.2
 
Date/Time
EST
Tmp

°C
App
Tmp
°C
Dew
Point
°C
Rel
Hum
%
Delta-T

°C
Wind Press
QNH
hPa
Press
MSL
hPa
Rain
since
9 am
mm
Dir
 
Spd
km/h
Gust
km/h
Spd
kts
Gust
kts
29/11:30pm 9.7 6.1 6.8 82 1.4 SE 15 28 8 15 1025.0 1025.0 0.2
29/11:00pm 10.2 5.6 5.8 74 2.0 SE 19 30 10 16 1025.2 1025.2 0.2
29/10:30pm 10.3 5.9 6.5 77 1.8 SE 19 30 10 16 1025.2 1025.2 0.2
29/10:00pm 10.5 5.8 6.1 74 2.0 SSE 20 33 11 18 1025.3 1025.3 0.2
29/09:30pm 10.4 5.8 6.4 76 1.9 SE 20 33 11 18 1025.2 1025.2 0.2
29/09:00pm 9.7 5.2 7.0 83 1.3 SSE 20 32 11 17 1025.2 1025.2 0.2
29/08:30pm 10.7 6.2 6.1 73 2.1 SSE 19 28 10 15 1025.2 1025.2 0.2

Latest Capital City Observations: Canberra | Sydney | Melbourne | Brisbane | Adelaide | Perth | Hobart | Darwin

Other Formats:

Comma delimited format used in spreadsheet applications
http://www.bom.gov.au/fwo/IDV60901/IDV60901.94898.axf

JavaScript Object Notation format (JSON) in row-major order
http://www.bom.gov.au/fwo/IDV60901/IDV60901.94898.json